createdAt,value
2024-05-09T00:01:49.743Z,102525.56
2024-05-09T00:06:02.171Z,102538.00
2024-05-09T00:10:22.634Z,102531.34
2024-05-09T00:14:41.377Z,102534.66
2024-05-09T00:18:53.892Z,102529.22
2024-05-09T00:23:07.433Z,102535.81
2024-05-09T00:27:20.702Z,102535.81
2024-05-09T00:31:32.925Z,102533.66
2024-05-09T00:35:45.114Z,102529.72
2024-05-09T00:39:57.345Z,102518.63
2024-05-09T00:44:09.614Z,102515.00
2024-05-09T00:48:21.994Z,102522.78
2024-05-09T00:52:34.451Z,102522.34
2024-05-09T00:56:46.656Z,102523.19
2024-05-09T01:01:02.068Z,102518.63
2024-05-09T01:05:14.529Z,102513.16
2024-05-09T01:09:26.846Z,102516.13
2024-05-09T01:13:39.082Z,102514.72
2024-05-09T01:17:51.817Z,102489.94
2024-05-09T01:22:04.587Z,102496.81
2024-05-09T01:26:17.040Z,102503.75
2024-05-09T01:30:34.688Z,102499.41
2024-05-09T01:34:49.172Z,102499.41
2024-05-09T01:39:01.407Z,102501.25
2024-05-09T01:43:13.693Z,102495.06
2024-05-09T01:47:26.150Z,102492.75
2024-05-09T01:51:38.479Z,102487.44
2024-05-09T01:55:50.718Z,102492.09
2024-05-09T02:00:06.003Z,102491.44
2024-05-09T02:04:22.677Z,102495.31
2024-05-09T02:08:35.107Z,102498.50
2024-05-09T02:12:47.398Z,102489.09
2024-05-09T02:16:59.645Z,102489.00
2024-05-09T02:21:11.944Z,102491.25
2024-05-09T02:25:26.996Z,102485.41
2024-05-09T02:29:39.219Z,102461.56
2024-05-09T02:33:52.286Z,102467.88
2024-05-09T02:38:04.986Z,102465.56
2024-05-09T02:42:17.320Z,102492.53
2024-05-09T02:46:29.501Z,102490.22
2024-05-09T02:50:42.348Z,102489.75
2024-05-09T02:54:54.579Z,102482.06
2024-05-09T02:59:06.794Z,102491.97
2024-05-09T03:03:19.383Z,102474.72
2024-05-09T03:07:31.797Z,102470.72
2024-05-09T03:11:44.118Z,102468.13
2024-05-09T03:15:56.361Z,102479.19
2024-05-09T03:20:17.382Z,102482.06
2024-05-09T03:24:35.705Z,102482.22
2024-05-09T03:28:47.949Z,102475.72
2024-05-09T03:33:00.347Z,102477.84
2024-05-09T03:37:14.239Z,102479.13
2024-05-09T03:41:26.482Z,102475.81
2024-05-09T03:45:38.730Z,102469.97
2024-05-09T03:49:50.918Z,102453.41
2024-05-09T03:54:03.061Z,102476.53
2024-05-09T03:58:15.415Z,102469.66
2024-05-09T04:02:27.686Z,102461.13
2024-05-09T04:06:39.890Z,102458.63
2024-05-09T04:10:52.090Z,102463.53
2024-05-09T04:15:04.632Z,102471.69
2024-05-09T04:19:17.016Z,102470.50
2024-05-09T04:23:29.265Z,102474.50
2024-05-09T04:27:41.489Z,102475.81
2024-05-09T04:31:53.807Z,102465.69
2024-05-09T04:36:07.287Z,102466.09
2024-05-09T04:40:28.080Z,102473.88
2024-05-09T04:44:45.428Z,102475.47
2024-05-09T04:48:57.672Z,102476.75
2024-05-09T04:53:11.320Z,102472.59
2024-05-09T04:57:23.920Z,102473.22
2024-05-09T05:01:36.249Z,102453.19
2024-05-09T05:05:48.677Z,102477.38
2024-05-09T05:10:01.111Z,102475.25
2024-05-09T05:14:13.392Z,102486.34
2024-05-09T05:18:27.305Z,102472.03
2024-05-09T05:22:43.081Z,102473.16
2024-05-09T05:26:55.313Z,102497.69
2024-05-09T05:31:07.594Z,102491.38
2024-05-09T05:35:19.864Z,102485.22
2024-05-09T05:39:32.103Z,102497.16
2024-05-09T05:43:44.383Z,102505.75
2024-05-09T05:47:56.924Z,102507.72
2024-05-09T05:52:12.348Z,102493.22
2024-05-09T05:56:24.642Z,102508.81
2024-05-09T06:00:39.293Z,102507.00
2024-05-09T06:04:53.039Z,102492.00
2024-05-09T06:09:05.393Z,102514.75
2024-05-09T06:13:17.592Z,102497.84
2024-05-09T06:17:29.992Z,102516.44
2024-05-09T06:21:42.334Z,102505.63
2024-05-09T06:25:54.674Z,102507.59
2024-05-09T06:30:09.950Z,102499.09
2024-05-09T06:34:25.425Z,102504.31
2024-05-09T06:38:38.147Z,102502.13
2024-05-09T06:42:50.534Z,102500.84
2024-05-09T06:47:02.892Z,102487.78
2024-05-09T06:51:40.613Z,102505.38
2024-05-09T06:55:53.068Z,102503.47
2024-05-09T07:00:08.222Z,102502.50
2024-05-09T07:04:22.502Z,102508.22
2024-05-09T07:08:34.889Z,102498.53
2024-05-09T07:12:47.223Z,102512.94
2024-05-09T07:16:59.745Z,102508.97
2024-05-09T07:21:12.125Z,102494.25
2024-05-09T07:25:25.283Z,102501.69
2024-05-09T07:29:38.660Z,102508.09
2024-05-09T07:33:51.222Z,102504.13
2024-05-09T07:38:03.539Z,102500.06
2024-05-09T07:42:15.892Z,102489.50
2024-05-09T07:47:36.874Z,102502.50
2024-05-09T07:53:00.888Z,102497.16
2024-05-09T07:55:34.803Z,102510.78
2024-05-09T07:59:47.024Z,102496.66
2024-05-09T08:03:59.347Z,102503.19
2024-05-09T08:08:11.639Z,102490.16
2024-05-09T08:12:23.830Z,102505.13
2024-05-09T08:16:36.054Z,102494.34
2024-05-09T08:20:49.765Z,102490.59
2024-05-09T08:25:02.004Z,102487.16
2024-05-09T08:29:14.739Z,102491.69
2024-05-09T08:33:27.087Z,102492.50
2024-05-09T08:37:40.687Z,102479.44
2024-05-09T08:41:53.128Z,102474.91
2024-05-09T08:46:07.370Z,102469.13
2024-05-09T08:50:32.055Z,102482.88
2024-05-09T08:54:50.722Z,102482.84
2024-05-09T08:59:04.946Z,102478.44
2024-05-09T09:03:25.320Z,102471.38
2024-05-09T09:07:40.517Z,102479.19
2024-05-09T09:11:52.778Z,102467.75
2024-05-09T09:16:05.289Z,102475.97
2024-05-09T09:20:23.254Z,102466.19
2024-05-09T09:24:41.406Z,102468.66
2024-05-09T09:28:53.763Z,102465.28
2024-05-09T09:33:06.859Z,102450.28
2024-05-09T09:37:23.823Z,102455.78
2024-05-09T09:41:38.473Z,102455.91
2024-05-09T09:45:53.223Z,102454.00
2024-05-09T09:50:12.111Z,102447.59
2024-05-09T09:54:29.934Z,102446.66
2024-05-09T09:58:44.099Z,102447.94
2024-05-09T10:02:56.364Z,102440.50
2024-05-09T10:07:11.111Z,102437.25
2024-05-09T10:11:24.859Z,102433.97
2024-05-09T10:15:52.815Z,102430.94
2024-05-09T10:20:14.461Z,102432.69
2024-05-09T10:24:47.833Z,102420.44
2024-05-09T10:29:03.147Z,102426.00
2024-05-09T10:33:20.356Z,102422.16
2024-05-09T10:37:33.278Z,102423.75
2024-05-09T10:41:45.475Z,102406.66
2024-05-09T10:45:57.726Z,102410.97
2024-05-09T10:50:18.372Z,102407.97
2024-05-09T10:54:38.074Z,102403.47
2024-05-09T10:58:53.417Z,102397.91
2024-05-09T11:03:06.111Z,102397.50
2024-05-09T11:07:21.438Z,102392.78
2024-05-09T11:11:34.005Z,102386.59
2024-05-09T11:15:46.249Z,102386.19
2024-05-09T11:19:58.511Z,102382.66
2024-05-09T11:24:11.780Z,102377.50
2024-05-09T11:28:26.391Z,102370.16
2024-05-09T11:32:38.705Z,102379.16
2024-05-09T11:36:51.031Z,102372.34
2024-05-09T11:41:04.134Z,102354.56
2024-05-09T11:45:16.498Z,102349.06
2024-05-09T11:49:28.859Z,102351.31
2024-05-09T11:53:41.104Z,102349.25
2024-05-09T11:57:53.442Z,102335.91
2024-05-09T12:02:05.852Z,102341.53
2024-05-09T12:06:18.458Z,102336.84
2024-05-09T12:10:34.135Z,102338.13
2024-05-09T12:14:48.014Z,102331.66
2024-05-09T12:19:00.208Z,102323.25
2024-05-09T12:23:12.420Z,102326.81
2024-05-09T12:27:24.617Z,102317.16
2024-05-09T12:31:36.841Z,102311.03
2024-05-09T12:35:50.907Z,102306.94
2024-05-09T12:40:04.927Z,102301.28
2024-05-09T12:44:18.883Z,102296.81
2024-05-09T12:48:31.212Z,102288.41
2024-05-09T12:52:43.449Z,102282.69
2024-05-09T12:56:55.623Z,102289.38
2024-05-09T13:01:10.926Z,102278.34
2024-05-09T13:05:23.426Z,102288.56
2024-05-09T13:09:36.020Z,102285.75
2024-05-09T13:13:48.275Z,102274.72
2024-05-09T13:18:03.102Z,102280.78
2024-05-09T13:22:16.051Z,102268.28
2024-05-09T13:26:28.274Z,102261.03
2024-05-09T13:30:42.131Z,102267.06
2024-05-09T13:34:54.902Z,102263.66
2024-05-09T13:39:07.112Z,102263.25
2024-05-09T13:43:21.828Z,102265.19
2024-05-09T13:47:34.515Z,102265.41
2024-05-09T13:51:46.777Z,102269.78
2024-05-09T13:55:58.976Z,102258.28
2024-05-09T14:00:22.917Z,102253.41
2024-05-09T14:04:43.996Z,102247.59
2024-05-09T14:08:56.350Z,102252.75
2024-05-09T14:13:08.612Z,102250.25
2024-05-09T14:17:21.128Z,102254.22
2024-05-09T14:21:33.434Z,102237.72
2024-05-09T14:25:48.179Z,102246.09
2024-05-09T14:30:04.132Z,102241.50
2024-05-09T14:34:18.363Z,102237.56
2024-05-09T14:38:30.765Z,102228.81
2024-05-09T14:42:43.033Z,102236.81
2024-05-09T14:46:55.236Z,102236.88
2024-05-09T14:51:07.477Z,102223.34
2024-05-09T14:55:19.796Z,102227.63
2024-05-09T14:59:32.013Z,102217.59
2024-05-09T15:03:44.492Z,102222.91
2024-05-09T15:07:58.230Z,102211.78
2024-05-09T15:12:10.443Z,102201.94
2024-05-09T15:17:14.209Z,102204.34
2024-05-09T15:21:26.408Z,102190.00
2024-05-09T15:25:38.619Z,102192.25
2024-05-09T15:29:50.823Z,102193.63
2024-05-09T15:34:03.204Z,102185.91
2024-05-09T15:38:16.775Z,102192.72
2024-05-09T15:42:28.996Z,102186.56
2024-05-09T15:46:41.286Z,102179.69
2024-05-09T15:50:53.500Z,102160.97
2024-05-09T15:55:06.596Z,102153.25
2024-05-09T15:59:18.924Z,102174.88
2024-05-09T16:03:31.379Z,102163.25
2024-05-09T16:07:43.708Z,102163.28
2024-05-09T16:11:56.269Z,102167.72
2024-05-09T16:16:08.776Z,102166.91
2024-05-09T16:26:32.832Z,102157.69
2024-05-09T17:00:47.287Z,102150.31
2024-05-09T17:05:03.302Z,102133.34
2024-05-09T17:32:37.018Z,102119.72
2024-05-09T17:36:49.386Z,102136.94
2024-05-09T17:41:01.677Z,102145.13
2024-05-09T17:45:15.142Z,102135.78
2024-05-09T17:49:27.476Z,102132.69
2024-05-09T17:53:43.160Z,102121.63
2024-05-09T17:57:55.473Z,102105.66
2024-05-09T18:02:08.049Z,102112.47
2024-05-09T18:06:20.375Z,102121.75
2024-05-09T18:10:37.007Z,102131.03
2024-05-09T18:14:51.609Z,102098.84
2024-05-09T18:19:04.134Z,102127.09
2024-05-09T18:23:18.311Z,102116.31
2024-05-09T18:27:31.217Z,102128.66
2024-05-09T18:31:43.594Z,102131.91
2024-05-09T18:35:55.887Z,102114.19
2024-05-09T18:40:12.196Z,102129.44
2024-05-09T18:44:31.441Z,102133.69
2024-05-09T18:48:43.885Z,102145.38
2024-05-09T18:52:56.308Z,102144.41
2024-05-09T18:57:08.798Z,102140.34
2024-05-09T19:01:21.230Z,102116.59
2024-05-09T19:05:35.907Z,102135.13
2024-05-09T19:09:55.029Z,102132.09
2024-05-09T19:14:07.706Z,102133.84
2024-05-09T19:18:20.317Z,102125.78
2024-05-09T19:22:32.769Z,102146.78
2024-05-09T19:26:45.904Z,102129.25
2024-05-09T19:30:58.373Z,102148.16
2024-05-09T19:35:10.759Z,102136.66
2024-05-09T19:39:24.007Z,102143.75
2024-05-09T19:43:36.575Z,102158.13
2024-05-09T19:47:49.350Z,102142.59
2024-05-09T19:52:01.873Z,102155.94
2024-05-09T19:56:14.379Z,102159.13
2024-05-09T20:00:32.809Z,102164.00
2024-05-09T20:04:48.973Z,102164.63
2024-05-09T20:09:01.372Z,102139.25
2024-05-09T20:13:14.319Z,102153.94
2024-05-09T20:17:26.708Z,102162.94
2024-05-09T20:21:43.160Z,102154.66
2024-05-09T20:25:55.540Z,102143.19
2024-05-09T20:30:12.221Z,102145.72
2024-05-09T20:34:27.133Z,102144.88
2024-05-09T20:38:39.439Z,102156.03
2024-05-09T20:42:51.726Z,102149.78
2024-05-09T20:47:04.088Z,102160.53
2024-05-09T20:51:16.403Z,102151.69
2024-05-09T20:55:29.606Z,102149.06
2024-05-09T20:59:41.871Z,102153.34
2024-05-09T21:03:54.372Z,102149.22
2024-05-09T21:08:07.227Z,102159.34
2024-05-09T21:12:19.479Z,102155.47
2024-05-09T21:16:34.156Z,102144.72
2024-05-09T21:20:46.580Z,102153.22
2024-05-09T21:24:58.917Z,102159.97
2024-05-09T21:29:12.156Z,102170.38
2024-05-09T21:33:24.753Z,102159.59
2024-05-09T21:37:44.339Z,102160.56
2024-05-09T21:42:01.689Z,102165.41
2024-05-09T21:46:14.022Z,102158.84
2024-05-09T21:50:36.298Z,102154.38
2024-05-09T21:54:52.595Z,102160.34
2024-05-09T21:59:04.873Z,102157.16
2024-05-09T22:03:17.341Z,102161.03
2024-05-09T22:07:29.800Z,102154.78
2024-05-09T22:11:42.187Z,102152.63
2024-05-09T22:15:54.566Z,102160.28
2024-05-09T22:20:14.720Z,102164.16
2024-05-09T22:24:30.680Z,102158.44
2024-05-09T22:28:43.147Z,102161.97
2024-05-09T22:32:55.555Z,102154.63
2024-05-09T22:37:07.996Z,102163.66
2024-05-09T22:41:20.331Z,102155.16
2024-05-09T22:45:32.865Z,102153.94
2024-05-09T22:49:45.321Z,102159.81
2024-05-09T22:53:57.736Z,102156.13
2024-05-09T22:58:10.176Z,102163.28
2024-05-09T23:02:22.577Z,102150.88
2024-05-09T23:06:34.947Z,102155.53
2024-05-09T23:10:47.487Z,102157.75
2024-05-09T23:15:00.104Z,102166.09
2024-05-09T23:19:12.513Z,102156.59
2024-05-09T23:23:24.837Z,102161.66
2024-05-09T23:27:37.309Z,102162.00
2024-05-09T23:31:49.831Z,102135.22
2024-05-09T23:36:02.689Z,102153.88
2024-05-09T23:40:18.827Z,102138.31
2024-05-09T23:44:35.031Z,102145.84
2024-05-09T23:48:47.505Z,102144.41
2024-05-09T23:52:59.906Z,102133.00
2024-05-09T23:57:15.226Z,102142.44
